Time;durP1;ratioP1;P1;durP2;ratioP2;P2;SDS_P1;SDS_P2;PMS_P1;PMS_P2;Temp;Humidity;BMP_temperature;BMP_pressure;BME280_temperature;BME280_humidity;BME280_pressure;Samples;Min_cycle;Max_cycle;Signal;HPM_P1;HPM_P2
2021/04/28 00:09:37;;;;;;;102.03;35.90;;;;;;;1.92;82.27;100439.53;714192;1199;113961;-71
2021/04/28 00:24:58;;;;;;;140.87;45.40;;;;;;;1.77;83.87;100435.95;714853;1200;114344;-72
2021/04/28 00:40:29;;;;;;;105.40;36.75;;;;;;;1.70;84.05;100428.56;715011;1202;114628;-71
2021/04/28 00:55:50;;;;;;;98.73;34.17;;;;;;;1.56;84.06;100427.48;714875;1193;114706;-72
2021/04/28 01:11:11;;;;;;;83.95;29.45;;;;;;;1.29;84.87;100427.05;715393;1199;115390;-71
2021/04/28 01:26:33;;;;;;;63.18;25.40;;;;;;;1.20;84.98;100409.38;714833;1199;114689;-71
2021/04/28 01:41:54;;;;;;;44.58;20.03;;;;;;;1.11;86.52;100405.47;714692;1199;114963;-71
2021/04/28 01:57:15;;;;;;;54.95;20.50;;;;;;;1.02;86.16;100396.42;714885;1199;115152;-73
2021/04/28 02:12:36;;;;;;;45.38;18.18;;;;;;;0.79;86.19;100393.16;714859;1185;114274;-72
2021/04/28 02:27:57;;;;;;;55.10;22.17;;;;;;;0.77;87.24;100382.05;714902;1199;114406;-72
2021/04/28 02:43:19;;;;;;;55.98;23.45;;;;;;;0.65;87.54;100390.36;714968;1174;113821;-71
2021/04/28 02:58:41;;;;;;;54.08;22.88;;;;;;;0.46;86.59;100370.53;714990;1200;113795;-71
2021/04/28 03:14:01;;;;;;;45.90;19.50;;;;;;;0.31;87.95;100374.61;714831;1199;114433;-72
2021/04/28 03:29:21;;;;;;;42.28;17.95;;;;;;;0.24;88.46;100372.36;715172;1176;114020;-72
2021/04/28 03:44:42;;;;;;;62.03;25.85;;;;;;;0.33;89.08;100371.98;715054;1199;114869;-72
2021/04/28 04:00:07;;;;;;;102.23;36.90;;;;;;;0.49;88.78;100378.13;715270;1200;114274;-72
2021/04/28 04:15:28;;;;;;;91.45;37.90;;;;;;;0.66;89.55;100385.13;715234;1199;115293;-70
2021/04/28 04:30:50;;;;;;;133.33;48.55;;;;;;;1.04;89.69;100402.34;714724;1199;114356;-71
2021/04/28 04:46:10;;;;;;;195.35;83.30;;;;;;;1.53;90.12;100406.96;714536;1200;114600;-72
2021/04/28 05:17:11;;;;;;;132.90;54.33;;;;;;;2.94;91.17;100404.95;712269;1206;115051;-74
2021/04/28 05:32:32;;;;;;;49.80;23.30;;;;;;;4.32;89.75;100411.81;712345;1202;114438;-74
2021/04/28 05:47:53;;;;;;;19.60;11.83;;;;;;;5.37;84.85;100407.13;713053;1176;114314;-75
2021/04/28 06:03:13;;;;;;;24.10;12.83;;;;;;;6.28;81.16;100414.19;713948;1203;114293;-77
2021/04/28 06:18:34;;;;;;;57.37;43.07;;;;;;;7.15;76.29;100397.73;714182;1199;114351;-75
2021/04/28 06:33:55;;;;;;;18.25;11.18;;;;;;;7.98;71.54;100399.50;713962;1202;113922;-77
2021/04/28 06:49:15;;;;;;;16.57;10.20;;;;;;;9.02;67.05;100391.54;713985;1203;113976;-75
2021/04/28 07:04:36;;;;;;;14.70;6.80;;;;;;;9.63;60.89;100390.98;714360;1199;114694;-75
2021/04/28 07:19:56;;;;;;;8.93;5.30;;;;;;;10.34;56.95;100373.72;713951;1200;114511;-77
2021/04/28 07:35:21;;;;;;;18.83;10.00;;;;;;;11.37;51.46;100381.45;714348;1200;114521;-74
2021/04/28 07:50:44;;;;;;;9.08;6.33;;;;;;;12.13;52.55;100368.37;714185;1200;115381;-74
2021/04/28 08:06:04;;;;;;;14.60;7.37;;;;;;;12.88;50.68;100369.27;713978;1203;113714;-74
2021/04/28 08:21:26;;;;;;;8.35;5.78;;;;;;;13.16;48.00;100364.79;714184;1203;114324;-72
2021/04/28 08:36:46;;;;;;;12.20;5.38;;;;;;;13.93;46.90;100366.91;714151;1199;115179;-73
2021/04/28 08:52:08;;;;;;;38.53;21.10;;;;;;;13.85;45.25;100356.31;713991;1199;115216;-73
2021/04/28 09:07:44;;;;;;;9.53;6.08;;;;;;;14.29;44.51;100333.31;714214;1199;114897;-73
2021/04/28 09:23:14;;;;;;;8.45;4.80;;;;;;;15.10;44.78;100323.14;735870;1199;114247;-73
2021/04/28 09:38:55;;;;;;;8.70;5.60;;;;;;;15.26;43.55;100303.02;714061;1199;115058;-71
2021/04/28 09:54:16;;;;;;;;;;;;;;;15.50;41.36;100285.48;714065;1199;115362;-73
2021/04/28 10:09:38;;;;;;;8.05;4.80;;;;;;;15.68;41.81;100267.60;714124;1194;100563;-76
2021/04/28 10:25:03;;;;;;;9.57;5.93;;;;;;;16.20;41.34;100258.34;714186;1202;113844;-77
2021/04/28 10:40:26;;;;;;;45.93;33.15;;;;;;;16.32;40.72;100244.73;713968;1199;115256;-77
2021/04/28 10:56:08;;;;;;;7.68;5.43;;;;;;;17.00;40.16;100229.89;714675;1177;114000;-78
2021/04/28 11:11:32;;;;;;;10.28;5.90;;;;;;;17.02;39.67;100229.71;715147;1199;114663;-75
2021/04/28 11:26:52;;;;;;;7.48;4.90;;;;;;;17.30;38.88;100221.98;714527;1200;115184;-75
2021/04/28 11:42:17;;;;;;;11.15;6.18;;;;;;;16.97;38.98;100187.84;714021;1199;113673;-75
2021/04/28 11:57:38;;;;;;;49.40;25.70;;;;;;;17.29;37.85;100169.99;715123;1200;114044;-76
2021/04/28 12:12:59;;;;;;;12.35;6.65;;;;;;;17.92;37.03;100148.33;715253;1199;114252;-78
2021/04/28 12:28:20;;;;;;;9.00;6.58;;;;;;;18.32;37.52;100132.88;714206;1199;114238;-78
2021/04/28 13:03:22;;;;;;;23.88;12.53;;;;;;;18.79;36.28;100096.05;716432;1192;23136;-75
2021/04/28 13:18:51;;;;;;;11.68;6.45;;;;;;;18.75;35.93;100090.33;714652;1203;114857;-78
2021/04/28 13:34:30;;;;;;;10.83;6.58;;;;;;;19.28;36.25;100057.94;715241;1199;115022;-75
2021/04/28 13:49:50;;;;;;;9.17;7.30;;;;;;;18.89;36.13;100042.61;714877;1199;115151;-75
2021/04/28 14:05:14;;;;;;;11.43;6.98;;;;;;;19.17;35.55;100029.23;714050;1202;114067;-74
2021/04/28 14:20:35;;;;;;;16.53;10.60;;;;;;;27.81;31.50;100014.32;714715;1202;114038;-77
2021/04/28 14:35:56;;;;;;;18.57;9.60;;;;;;;29.92;29.32;99994.73;715462;1199;114409;-77
2021/04/28 14:51:16;;;;;;;7.00;5.75;;;;;;;23.58;30.72;99988.19;714322;1199;115002;-79
2021/04/28 15:06:38;;;;;;;78.58;49.63;;;;;;;25.13;29.78;99969.38;714035;1199;113742;-76
2021/04/28 15:21:58;;;;;;;10.83;7.03;;;;;;;19.37;32.42;99957.51;714164;1200;114459;-76
2021/04/28 15:37:20;;;;;;;54.68;23.38;;;;;;;18.62;33.21;99936.98;714276;1199;114064;-77
2021/04/28 15:52:40;;;;;;;18.15;10.13;;;;;;;17.60;33.60;99933.74;714449;1202;115397;-73
2021/04/28 16:08:01;;;;;;;11.27;6.70;;;;;;;17.07;34.25;99925.26;714463;1199;115100;-76
2021/04/28 16:23:21;;;;;;;11.13;6.68;;;;;;;16.68;34.86;99919.27;715472;1199;114753;-72
2021/04/28 16:38:42;;;;;;;22.93;14.25;;;;;;;16.06;35.41;99910.67;715007;1189;113818;-71
2021/04/28 16:54:03;;;;;;;51.53;32.50;;;;;;;15.77;35.73;99909.56;714981;1176;113758;-73
2021/04/28 17:09:26;;;;;;;194.07;98.13;;;;;;;15.22;37.16;99900.07;714387;1200;115095;-72
2021/04/28 17:24:46;;;;;;;347.15;181.25;;;;;;;14.84;37.56;99902.59;714381;1199;115612;-78
2021/04/28 17:40:07;;;;;;;87.60;38.38;;;;;;;14.26;38.84;99886.92;714378;1199;115740;-76
2021/04/28 17:55:27;;;;;;;165.73;59.87;;;;;;;13.43;40.53;99896.70;714650;1199;114055;-75
2021/04/28 18:10:54;;;;;;;121.85;46.13;;;;;;;12.70;40.92;99898.96;714356;1198;115605;-75
2021/04/28 18:26:15;;;;;;;119.18;57.35;;;;;;;12.15;42.40;99898.37;714451;1199;114798;-74
2021/04/28 18:41:35;;;;;;;53.37;26.17;;;;;;;11.48;43.05;99897.97;714315;1199;114290;-75
2021/04/28 18:56:55;;;;;;;91.88;45.08;;;;;;;10.77;43.85;99908.24;714453;1202;115502;-77
2021/04/28 19:12:19;;;;;;;50.20;22.75;;;;;;;10.67;45.57;99899.58;714602;1199;114253;-71
2021/04/28 19:27:40;;;;;;;31.38;16.15;;;;;;;10.65;46.91;99891.86;714847;1174;113832;-72
2021/04/28 19:43:01;;;;;;;30.37;15.33;;;;;;;10.36;47.56;99897.23;716079;1199;114943;-78
2021/04/28 19:58:21;;;;;;;39.80;17.48;;;;;;;10.19;47.70;99888.28;715994;1199;114760;-79
2021/04/28 20:13:42;;;;;;;32.10;14.70;;;;;;;10.27;48.79;99883.14;715363;1176;113457;-78
2021/04/28 20:29:07;;;;;;;29.27;14.43;;;;;;;10.39;48.85;99865.47;714953;1199;113584;-73
2021/04/28 20:44:27;;;;;;;36.60;16.03;;;;;;;10.49;48.47;99853.15;715115;1199;113657;-73
2021/04/28 20:59:48;;;;;;;27.83;12.73;;;;;;;10.41;47.93;99850.44;715303;1176;114129;-73
2021/04/28 21:15:09;;;;;;;19.58;11.35;;;;;;;10.27;48.91;99843.01;715005;1174;114200;-73
2021/04/28 21:30:30;;;;;;;20.70;12.63;;;;;;;10.20;49.44;99848.00;715414;1200;114658;-73
2021/04/28 21:45:52;;;;;;;22.33;10.85;;;;;;;9.97;49.28;99842.27;714259;1199;114438;-73
2021/04/28 22:01:13;;;;;;;23.58;11.50;;;;;;;;;;714926;1201;114281;-71
2021/04/28 22:16:34;;;;;;;20.43;9.98;;;;;;;9.80;50.91;99852.49;714940;1200;87012;-72
2021/04/28 22:31:54;;;;;;;19.70;10.55;;;;;;;9.73;50.88;99850.60;714727;1190;113571;-74
2021/04/28 22:47:15;;;;;;;17.40;9.40;;;;;;;9.68;50.95;99842.33;714299;1199;113419;-73
2021/04/28 23:02:37;;;;;;;20.55;10.20;;;;;;;9.68;51.46;99827.44;714391;1175;113378;-74
2021/04/28 23:17:57;;;;;;;20.48;10.13;;;;;;;9.59;51.35;99820.42;714463;1199;113869;-72
2021/04/28 23:33:18;;;;;;;13.10;8.23;;;;;;;9.48;52.12;99805.70;714502;1175;114501;-72
2021/04/28 23:48:38;;;;;;;15.55;8.85;;;;;;;9.47;51.72;99786.52;714481;1198;114638;-71
